sensor_id;sensor_type;location;lat;lon;timestamp;pressure;altitude;pressure_sealevel;temperature;humidity
63607;BME280;71992;52.478;-1.918;2023-12-20T00:01:59;100205.88;;;5.10;100.00
63607;BME280;71992;52.478;-1.918;2023-12-20T00:04:29;100201.22;;;5.16;100.00
63607;BME280;71992;52.478;-1.918;2023-12-20T00:06:59;100191.44;;;5.18;100.00
63607;BME280;71992;52.478;-1.918;2023-12-20T00:09:30;100175.72;;;5.14;100.00
63607;BME280;71992;52.478;-1.918;2023-12-20T00:12:01;100170.59;;;5.09;100.00
63607;BME280;71992;52.478;-1.918;2023-12-20T00:14:32;100174.22;;;5.07;100.00
63607;BME280;71992;52.478;-1.918;2023-12-20T00:17:06;100188.41;;;5.04;100.00
63607;BME280;71992;52.478;-1.918;2023-12-20T00:19:37;100184.00;;;5.05;100.00
63607;BME280;71992;52.478;-1.918;2023-12-20T00:22:07;100174.31;;;5.03;100.00
63607;BME280;71992;52.478;-1.918;2023-12-20T00:24:40;100176.16;;;5.01;100.00
63607;BME280;71992;52.478;-1.918;2023-12-20T00:27:52;100173.63;;;4.98;100.00
63607;BME280;71992;52.478;-1.918;2023-12-20T00:30:23;100177.22;;;4.97;100.00
63607;BME280;71992;52.478;-1.918;2023-12-20T00:32:54;100168.34;;;4.98;100.00
63607;BME280;71992;52.478;-1.918;2023-12-20T00:35:24;100193.13;;;4.96;100.00
63607;BME280;71992;52.478;-1.918;2023-12-20T00:37:55;100190.38;;;4.99;100.00
63607;BME280;71992;52.478;-1.918;2023-12-20T00:40:24;100186.75;;;5.01;100.00
63607;BME280;71992;52.478;-1.918;2023-12-20T00:42:56;100193.09;;;4.97;100.00
63607;BME280;71992;52.478;-1.918;2023-12-20T00:45:27;100189.63;;;4.95;100.00
63607;BME280;71992;52.478;-1.918;2023-12-20T00:47:58;100191.34;;;4.96;100.00
63607;BME280;71992;52.478;-1.918;2023-12-20T00:50:29;100190.44;;;4.97;100.00
63607;BME280;71992;52.478;-1.918;2023-12-20T00:53:00;100188.66;;;4.98;100.00
63607;BME280;71992;52.478;-1.918;2023-12-20T00:55:31;100186.81;;;5.00;100.00
63607;BME280;71992;52.478;-1.918;2023-12-20T00:58:04;100193.00;;;4.99;100.00
63607;BME280;71992;52.478;-1.918;2023-12-20T01:00:33;100195.66;;;4.99;100.00
63607;BME280;71992;52.478;-1.918;2023-12-20T01:03:04;100189.56;;;4.97;100.00
63607;BME280;71992;52.478;-1.918;2023-12-20T01:05:35;100185.22;;;4.94;100.00
63607;BME280;71992;52.478;-1.918;2023-12-20T01:08:04;100185.31;;;4.93;100.00
63607;BME280;71992;52.478;-1.918;2023-12-20T01:10:34;100176.41;;;4.95;100.00
63607;BME280;71992;52.478;-1.918;2023-12-20T01:13:07;100177.38;;;4.93;100.00
63607;BME280;71992;52.478;-1.918;2023-12-20T01:15:38;100182.75;;;4.90;100.00
63607;BME280;71992;52.478;-1.918;2023-12-20T01:18:09;100166.88;;;4.90;100.00
63607;BME280;71992;52.478;-1.918;2023-12-20T01:20:40;100160.59;;;4.92;100.00
63607;BME280;71992;52.478;-1.918;2023-12-20T01:23:13;100161.50;;;4.93;100.00
63607;BME280;71992;52.478;-1.918;2023-12-20T01:25:42;100162.28;;;4.95;100.00
63607;BME280;71992;52.478;-1.918;2023-12-20T01:28:18;100159.63;;;4.95;100.00
63607;BME280;71992;52.478;-1.918;2023-12-20T01:30:49;100156.13;;;4.94;100.00
63607;BME280;71992;52.478;-1.918;2023-12-20T01:33:18;100156.13;;;4.94;100.00
63607;BME280;71992;52.478;-1.918;2023-12-20T01:35:47;100154.34;;;4.95;100.00
63607;BME280;71992;52.478;-1.918;2023-12-20T01:38:18;100147.28;;;4.95;100.00
63607;BME280;71992;52.478;-1.918;2023-12-20T01:40:49;100142.00;;;4.95;100.00
63607;BME280;71992;52.478;-1.918;2023-12-20T01:43:22;100147.38;;;4.92;100.00
63607;BME280;71992;52.478;-1.918;2023-12-20T01:45:54;100149.22;;;4.90;100.00
63607;BME280;71992;52.478;-1.918;2023-12-20T01:48:28;100156.25;;;4.91;100.00
63607;BME280;71992;52.478;-1.918;2023-12-20T01:51:00;100150.94;;;4.91;100.00
63607;BME280;71992;52.478;-1.918;2023-12-20T01:53:30;100142.19;;;4.89;100.00
63607;BME280;71992;52.478;-1.918;2023-12-20T01:56:02;100146.69;;;4.87;100.00
63607;BME280;71992;52.478;-1.918;2023-12-20T01:58:38;100140.63;;;4.84;100.00
63607;BME280;71992;52.478;-1.918;2023-12-20T02:01:10;100147.44;;;4.91;100.00
63607;BME280;71992;52.478;-1.918;2023-12-20T02:03:41;100139.56;;;4.89;100.00
63607;BME280;71992;52.478;-1.918;2023-12-20T02:06:12;100136.91;;;4.89;100.00
63607;BME280;71992;52.478;-1.918;2023-12-20T02:08:44;100150.75;;;4.97;100.00
63607;BME280;71992;52.478;-1.918;2023-12-20T02:11:15;100134.63;;;5.03;100.00
63607;BME280;71992;52.478;-1.918;2023-12-20T02:13:48;100126.47;;;5.10;100.00
63607;BME280;71992;52.478;-1.918;2023-12-20T02:16:19;100132.38;;;5.16;100.00
63607;BME280;71992;52.478;-1.918;2023-12-20T02:18:52;100125.91;;;5.25;100.00
63607;BME280;71992;52.478;-1.918;2023-12-20T02:21:32;100122.03;;;5.34;100.00
63607;BME280;71992;52.478;-1.918;2023-12-20T02:24:04;100122.94;;;5.33;100.00
63607;BME280;71992;52.478;-1.918;2023-12-20T02:26:35;100123.75;;;5.35;100.00
63607;BME280;71992;52.478;-1.918;2023-12-20T02:29:06;100120.25;;;5.34;100.00
63607;BME280;71992;52.478;-1.918;2023-12-20T02:31:37;100133.41;;;5.36;100.00
63607;BME280;71992;52.478;-1.918;2023-12-20T02:34:07;100132.28;;;5.43;100.00
63607;BME280;71992;52.478;-1.918;2023-12-20T02:36:41;100124.34;;;5.43;100.00
63607;BME280;71992;52.478;-1.918;2023-12-20T02:39:11;100123.25;;;5.47;100.00
63607;BME280;71992;52.478;-1.918;2023-12-20T02:41:40;100117.69;;;5.55;100.00
63607;BME280;71992;52.478;-1.918;2023-12-20T02:44:09;100137.91;;;5.57;100.00
63607;BME280;71992;52.478;-1.918;2023-12-20T02:46:40;100136.09;;;5.58;100.00
63607;BME280;71992;52.478;-1.918;2023-12-20T02:49:11;100126.19;;;5.63;100.00
63607;BME280;71992;52.478;-1.918;2023-12-20T02:51:44;100126.19;;;5.63;100.00
63607;BME280;71992;52.478;-1.918;2023-12-20T02:54:15;100120.03;;;5.62;100.00
63607;BME280;71992;52.478;-1.918;2023-12-20T02:56:46;100132.41;;;5.62;100.00
63607;BME280;71992;52.478;-1.918;2023-12-20T02:59:24;100127.88;;;5.65;100.00
63607;BME280;71992;52.478;-1.918;2023-12-20T03:01:55;100131.44;;;5.64;100.00
63607;BME280;71992;52.478;-1.918;2023-12-20T03:04:26;100120.03;;;5.62;100.00
63607;BME280;71992;52.478;-1.918;2023-12-20T03:07:00;100125.72;;;5.75;100.00
63607;BME280;71992;52.478;-1.918;2023-12-20T03:09:33;100123.38;;;5.90;100.00
63607;BME280;71992;52.478;-1.918;2023-12-20T03:12:04;100109.84;;;5.97;100.00
63607;BME280;71992;52.478;-1.918;2023-12-20T03:14:35;100117.47;;;6.05;100.00
63607;BME280;71992;52.478;-1.918;2023-12-20T03:17:06;100112.22;;;6.03;100.00
63607;BME280;71992;52.478;-1.918;2023-12-20T03:19:35;100105.22;;;6.02;100.00
63607;BME280;71992;52.478;-1.918;2023-12-20T03:22:06;100111.19;;;6.07;100.00
63607;BME280;71992;52.478;-1.918;2023-12-20T03:24:37;100108.47;;;6.09;100.00
63607;BME280;71992;52.478;-1.918;2023-12-20T03:27:08;100102.47;;;6.04;100.00
63607;BME280;71992;52.478;-1.918;2023-12-20T03:29:40;100117.53;;;6.03;100.00
63607;BME280;71992;52.478;-1.918;2023-12-20T03:32:11;100105.75;;;6.11;100.00
63607;BME280;71992;52.478;-1.918;2023-12-20T03:34:41;100101.84;;;6.19;100.00
63607;BME280;71992;52.478;-1.918;2023-12-20T03:37:15;100100.16;;;6.18;100.00
63607;BME280;71992;52.478;-1.918;2023-12-20T03:39:46;100093.50;;;6.28;100.00
63607;BME280;71992;52.478;-1.918;2023-12-20T03:42:17;100094.78;;;6.40;100.00
63607;BME280;71992;52.478;-1.918;2023-12-20T03:44:47;100094.91;;;6.37;100.00
63607;BME280;71992;52.478;-1.918;2023-12-20T03:47:18;100090.25;;;6.42;100.00
63607;BME280;71992;52.478;-1.918;2023-12-20T03:49:49;100098.38;;;6.39;100.00
63607;BME280;71992;52.478;-1.918;2023-12-20T03:52:23;100099.63;;;6.31;100.00
63607;BME280;71992;52.478;-1.918;2023-12-20T03:54:55;100101.41;;;6.30;100.00
63607;BME280;71992;52.478;-1.918;2023-12-20T03:57:26;100100.59;;;6.28;100.00
63607;BME280;71992;52.478;-1.918;2023-12-20T03:59:57;100105.16;;;6.24;100.00
63607;BME280;71992;52.478;-1.918;2023-12-20T04:02:28;100105.00;;;6.29;100.00
63607;BME280;71992;52.478;-1.918;2023-12-20T04:04:59;100108.31;;;6.34;100.00
63607;BME280;71992;52.478;-1.918;2023-12-20T04:07:33;100104.72;;;6.35;100.00
63607;BME280;71992;52.478;-1.918;2023-12-20T04:10:04;100104.53;;;6.40;100.00
63607;BME280;71992;52.478;-1.918;2023-12-20T04:12:35;100103.53;;;6.42;100.00
63607;BME280;71992;52.478;-1.918;2023-12-20T04:15:07;100097.31;;;6.43;100.00
63607;BME280;71992;52.478;-1.918;2023-12-20T04:17:39;100103.13;;;6.52;100.00
63607;BME280;71992;52.478;-1.918;2023-12-20T04:20:10;100093.25;;;6.55;100.00
63607;BME280;71992;52.478;-1.918;2023-12-20T04:22:45;100096.72;;;6.57;100.00
63607;BME280;71992;52.478;-1.918;2023-12-20T04:25:16;100087.34;;;6.48;100.00
63607;BME280;71992;52.478;-1.918;2023-12-20T04:27:47;100093.50;;;6.49;100.00
63607;BME280;71992;52.478;-1.918;2023-12-20T04:30:17;100093.59;;;6.47;100.00
63607;BME280;71992;52.478;-1.918;2023-12-20T04:32:48;100092.91;;;6.42;100.00
63607;BME280;71992;52.478;-1.918;2023-12-20T04:35:21;100089.94;;;6.50;100.00
63607;BME280;71992;52.478;-1.918;2023-12-20T04:37:54;100082.69;;;6.54;100.00
63607;BME280;71992;52.478;-1.918;2023-12-20T04:40:25;100079.94;;;6.57;100.00
63607;BME280;71992;52.478;-1.918;2023-12-20T04:42:56;100080.00;;;6.55;100.00
63607;BME280;71992;52.478;-1.918;2023-12-20T04:45:28;100079.00;;;6.58;100.00
63607;BME280;71992;52.478;-1.918;2023-12-20T04:47:58;100078.13;;;6.57;100.00
63607;BME280;71992;52.478;-1.918;2023-12-20T04:50:29;100062.28;;;6.56;100.00
63607;BME280;71992;52.478;-1.918;2023-12-20T04:53:03;100065.13;;;6.51;100.00
63607;BME280;71992;52.478;-1.918;2023-12-20T04:55:34;100065.22;;;6.50;100.00
63607;BME280;71992;52.478;-1.918;2023-12-20T04:58:05;100065.22;;;6.50;100.00
63607;BME280;71992;52.478;-1.918;2023-12-20T05:00:36;100064.22;;;6.52;100.00
63607;BME280;71992;52.478;-1.918;2023-12-20T05:03:06;100064.94;;;6.56;100.00
63607;BME280;71992;52.478;-1.918;2023-12-20T05:05:40;100061.06;;;6.63;100.00
63607;BME280;71992;52.478;-1.918;2023-12-20T05:08:13;100059.34;;;6.62;100.00
63607;BME280;71992;52.478;-1.918;2023-12-20T05:10:44;100062.88;;;6.62;100.00
63607;BME280;71992;52.478;-1.918;2023-12-20T05:13:15;100067.47;;;6.59;100.00
63607;BME280;71992;52.478;-1.918;2023-12-20T05:15:46;100062.28;;;6.56;100.00
63607;BME280;71992;52.478;-1.918;2023-12-20T05:18:17;100050.81;;;6.55;100.00
63607;BME280;71992;52.478;-1.918;2023-12-20T05:20:47;100046.56;;;6.51;100.00
63607;BME280;71992;52.478;-1.918;2023-12-20T05:23:21;100066.13;;;6.48;100.00
63607;BME280;71992;52.478;-1.918;2023-12-20T05:25:52;100067.28;;;6.43;100.00
63607;BME280;71992;52.478;-1.918;2023-12-20T05:28:23;100068.25;;;6.40;100.00
63607;BME280;71992;52.478;-1.918;2023-12-20T05:30:54;100065.34;;;6.46;100.00
63607;BME280;71992;52.478;-1.918;2023-12-20T05:33:28;100065.41;;;6.45;100.00
63607;BME280;71992;52.478;-1.918;2023-12-20T05:35:59;100071.59;;;6.45;100.00
63607;BME280;71992;52.478;-1.918;2023-12-20T05:38:32;100071.59;;;6.45;100.00
63607;BME280;71992;52.478;-1.918;2023-12-20T05:41:06;100069.25;;;6.38;100.00
63607;BME280;71992;52.478;-1.918;2023-12-20T05:43:37;100063.13;;;6.36;100.00
63607;BME280;71992;52.478;-1.918;2023-12-20T05:46:10;100069.97;;;6.41;100.00
63607;BME280;71992;52.478;-1.918;2023-12-20T05:48:40;100075.28;;;6.41;100.00
63607;BME280;71992;52.478;-1.918;2023-12-20T05:51:12;100069.97;;;6.41;100.00
63607;BME280;71992;52.478;-1.918;2023-12-20T05:53:45;100068.06;;;6.45;100.00
63607;BME280;71992;52.478;-1.918;2023-12-20T05:56:19;100070.72;;;6.45;100.00
63607;BME280;71992;52.478;-1.918;2023-12-20T05:58:50;100054.13;;;6.40;100.00
63607;BME280;71992;52.478;-1.918;2023-12-20T06:01:21;100067.38;;;6.40;100.00
63607;BME280;71992;52.478;-1.918;2023-12-20T06:03:51;100064.88;;;6.37;100.00
63607;BME280;71992;52.478;-1.918;2023-12-20T06:06:23;100056.06;;;6.36;100.00
63607;BME280;71992;52.478;-1.918;2023-12-20T06:08:56;100063.94;;;6.38;100.00
63607;BME280;71992;52.478;-1.918;2023-12-20T06:11:27;100069.19;;;6.39;100.00
63607;BME280;71992;52.478;-1.918;2023-12-20T06:13:58;100076.28;;;6.39;100.00
63607;BME280;71992;52.478;-1.918;2023-12-20T06:16:28;100079.75;;;6.41;100.00
63607;BME280;71992;52.478;-1.918;2023-12-20T06:18:59;100069.97;;;6.41;100.00
63607;BME280;71992;52.478;-1.918;2023-12-20T06:21:30;100070.63;;;6.46;100.00
63607;BME280;71992;52.478;-1.918;2023-12-20T06:24:06;100067.13;;;6.46;100.00
63607;BME280;71992;52.478;-1.918;2023-12-20T06:26:35;100059.03;;;6.49;100.00
63607;BME280;71992;52.478;-1.918;2023-12-20T06:29:06;100061.56;;;6.52;100.00
63607;BME280;71992;52.478;-1.918;2023-12-20T06:31:37;100036.88;;;6.50;100.00
63607;BME280;71992;52.478;-1.918;2023-12-20T06:34:07;100027.34;;;6.46;100.00
63607;BME280;71992;52.478;-1.918;2023-12-20T06:36:39;100029.25;;;6.42;100.00
63607;BME280;71992;52.478;-1.918;2023-12-20T06:39:12;100027.47;;;6.43;100.00
63607;BME280;71992;52.478;-1.918;2023-12-20T06:41:43;100025.88;;;6.39;100.00
63607;BME280;71992;52.478;-1.918;2023-12-20T06:44:14;100024.03;;;6.41;100.00
63607;BME280;71992;52.478;-1.918;2023-12-20T06:46:44;100027.47;;;6.43;100.00
63607;BME280;71992;52.478;-1.918;2023-12-20T06:49:15;100038.88;;;6.45;100.00
63607;BME280;71992;52.478;-1.918;2023-12-20T06:51:46;100048.56;;;6.46;100.00
63607;BME280;71992;52.478;-1.918;2023-12-20T06:54:20;100049.41;;;6.46;100.00
63607;BME280;71992;52.478;-1.918;2023-12-20T06:56:52;100045.50;;;6.55;100.00
63607;BME280;71992;52.478;-1.918;2023-12-20T06:59:22;100031.16;;;6.59;100.00
63607;BME280;71992;52.478;-1.918;2023-12-20T07:01:51;100031.22;;;6.58;100.00
63607;BME280;71992;52.478;-1.918;2023-12-20T07:04:20;100038.94;;;6.64;100.00
63607;BME280;71992;52.478;-1.918;2023-12-20T07:06:51;100039.78;;;6.64;100.00
63607;BME280;71992;52.478;-1.918;2023-12-20T07:09:27;100039.63;;;6.67;100.00
63607;BME280;71992;52.478;-1.918;2023-12-20T07:11:58;100040.72;;;6.63;100.00
63607;BME280;71992;52.478;-1.918;2023-12-20T07:14:31;100036.47;;;6.59;100.00
63607;BME280;71992;52.478;-1.918;2023-12-20T07:17:02;100050.59;;;6.60;100.00
63607;BME280;71992;52.478;-1.918;2023-12-20T07:19:32;100042.50;;;6.63;100.00
63607;BME280;71992;52.478;-1.918;2023-12-20T07:22:03;100052.25;;;6.62;100.00
63607;BME280;71992;52.478;-1.918;2023-12-20T07:24:37;100054.00;;;6.63;100.00
63607;BME280;71992;52.478;-1.918;2023-12-20T07:27:08;100044.81;;;6.71;100.00
63607;BME280;71992;52.478;-1.918;2023-12-20T07:29:40;100040.09;;;6.77;100.00
63607;BME280;71992;52.478;-1.918;2023-12-20T07:32:11;100037.25;;;6.82;100.00
63607;BME280;71992;52.478;-1.918;2023-12-20T07:34:42;100036.56;;;6.77;100.00
63607;BME280;71992;52.478;-1.918;2023-12-20T07:37:13;100043.81;;;6.73;100.00
63607;BME280;71992;52.478;-1.918;2023-12-20T07:39:46;100052.69;;;6.72;100.00
63607;BME280;71992;52.478;-1.918;2023-12-20T07:42:18;100055.13;;;6.77;100.00
63607;BME280;71992;52.478;-1.918;2023-12-20T07:44:52;100069.94;;;6.82;100.00
63607;BME280;71992;52.478;-1.918;2023-12-20T07:47:23;100070.69;;;6.86;100.00
63607;BME280;71992;52.478;-1.918;2023-12-20T07:49:56;100082.00;;;6.89;100.00
63607;BME280;71992;52.478;-1.918;2023-12-20T07:52:26;100084.44;;;6.94;100.00
63607;BME280;71992;52.478;-1.918;2023-12-20T07:55:00;100082.59;;;6.96;100.00
63607;BME280;71992;52.478;-1.918;2023-12-20T07:57:32;100082.66;;;6.95;100.00
63607;BME280;71992;52.478;-1.918;2023-12-20T08:00:05;100085.19;;;6.98;100.00
63607;BME280;71992;52.478;-1.918;2023-12-20T08:02:37;100084.25;;;6.99;100.00
63607;BME280;71992;52.478;-1.918;2023-12-20T08:05:08;100069.09;;;7.01;100.00
63607;BME280;71992;52.478;-1.918;2023-12-20T08:07:39;100059.22;;;7.04;100.00
63607;BME280;71992;52.478;-1.918;2023-12-20T08:10:11;100052.09;;;7.05;100.00
63607;BME280;71992;52.478;-1.918;2023-12-20T08:12:43;100049.50;;;7.03;100.00
63607;BME280;71992;52.478;-1.918;2023-12-20T08:15:14;100039.63;;;7.07;100.00
63607;BME280;71992;52.478;-1.918;2023-12-20T08:17:45;100043.88;;;7.11;100.00
63607;BME280;71992;52.478;-1.918;2023-12-20T08:20:16;100042.97;;;7.10;100.00
63607;BME280;71992;52.478;-1.918;2023-12-20T08:22:47;100042.84;;;7.14;100.00
63607;BME280;71992;52.478;-1.918;2023-12-20T08:25:21;100042.19;;;7.08;100.00
63607;BME280;71992;52.478;-1.918;2023-12-20T08:27:52;100051.16;;;7.06;100.00
63607;BME280;71992;52.478;-1.918;2023-12-20T08:30:28;100053.13;;;7.02;100.00
63607;BME280;71992;52.478;-1.918;2023-12-20T08:33:00;100054.03;;;7.01;100.00
63607;BME280;71992;52.478;-1.918;2023-12-20T08:35:33;100059.22;;;7.04;100.00
63607;BME280;71992;52.478;-1.918;2023-12-20T08:38:04;100064.53;;;7.04;100.00
63607;BME280;71992;52.478;-1.918;2023-12-20T08:40:40;100072.56;;;7.03;100.00
63607;BME280;71992;52.478;-1.918;2023-12-20T08:43:12;100071.63;;;7.04;100.00
63607;BME280;71992;52.478;-1.918;2023-12-20T08:45:43;100063.78;;;7.01;100.00
63607;BME280;71992;52.478;-1.918;2023-12-20T08:48:14;100084.25;;;6.99;100.00
63607;BME280;71992;52.478;-1.918;2023-12-20T08:50:46;100103.56;;;7.02;100.00
63607;BME280;71992;52.478;-1.918;2023-12-20T08:53:18;100108.56;;;7.08;100.00
63607;BME280;71992;52.478;-1.918;2023-12-20T08:55:51;100079.31;;;7.10;100.00
63607;BME280;71992;52.478;-1.918;2023-12-20T08:58:23;100090.00;;;7.08;100.00
63607;BME280;71992;52.478;-1.918;2023-12-20T09:00:54;100079.31;;;7.10;100.00
63607;BME280;71992;52.478;-1.918;2023-12-20T09:03:27;100082.03;;;7.08;100.00
63607;BME280;71992;52.478;-1.918;2023-12-20T09:05:58;100074.63;;;7.15;100.00
63607;BME280;71992;52.478;-1.918;2023-12-20T09:08:31;100048.00;;;7.17;100.00
63607;BME280;71992;52.478;-1.918;2023-12-20T09:11:05;100065.75;;;7.16;100.00
63607;BME280;71992;52.478;-1.918;2023-12-20T09:13:36;100054.97;;;7.19;100.00
63607;BME280;71992;52.478;-1.918;2023-12-20T09:16:07;100054.97;;;7.19;100.00
63607;BME280;71992;52.478;-1.918;2023-12-20T09:18:38;100050.63;;;7.18;100.00
63607;BME280;71992;52.478;-1.918;2023-12-20T09:21:06;100047.22;;;7.15;100.00
63607;BME280;71992;52.478;-1.918;2023-12-20T09:23:35;100049.81;;;7.16;100.00
63607;BME280;71992;52.478;-1.918;2023-12-20T09:26:10;100059.38;;;7.20;100.00
63607;BME280;71992;52.478;-1.918;2023-12-20T09:28:41;100059.06;;;7.26;100.00
63607;BME280;71992;52.478;-1.918;2023-12-20T09:31:12;100061.22;;;7.37;100.00
63607;BME280;71992;52.478;-1.918;2023-12-20T09:33:43;100069.69;;;7.45;100.00
63607;BME280;71992;52.478;-1.918;2023-12-20T09:36:14;100071.28;;;7.49;100.00
63607;BME280;71992;52.478;-1.918;2023-12-20T09:38:45;100054.56;;;7.47;100.00
63607;BME280;71992;52.478;-1.918;2023-12-20T09:41:18;100050.03;;;7.49;100.00
63607;BME280;71992;52.478;-1.918;2023-12-20T09:43:50;100056.59;;;7.60;100.00
63607;BME280;71992;52.478;-1.918;2023-12-20T09:46:24;100050.34;;;7.61;100.00
63607;BME280;71992;52.478;-1.918;2023-12-20T09:48:58;100040.09;;;7.53;100.00
63607;BME280;71992;52.478;-1.918;2023-12-20T09:51:31;100044.91;;;7.64;100.00
63607;BME280;71992;52.478;-1.918;2023-12-20T09:54:03;100048.13;;;7.70;100.00
63607;BME280;71992;52.478;-1.918;2023-12-20T09:56:37;100038.97;;;7.76;100.00
63607;BME280;71992;52.478;-1.918;2023-12-20T09:59:08;100045.00;;;7.80;100.00
63607;BME280;71992;52.478;-1.918;2023-12-20T10:01:39;100044.84;;;7.83;100.00
63607;BME280;71992;52.478;-1.918;2023-12-20T10:04:09;100050.25;;;7.81;100.00
63607;BME280;71992;52.478;-1.918;2023-12-20T10:06:42;100038.44;;;7.87;100.00
63607;BME280;71992;52.478;-1.918;2023-12-20T10:09:17;100043.03;;;7.83;100.00
63607;BME280;71992;52.478;-1.918;2023-12-20T10:11:54;100038.72;;;7.81;100.00
63607;BME280;71992;52.478;-1.918;2023-12-20T10:14:24;100032.56;;;7.80;100.00
63607;BME280;71992;52.478;-1.918;2023-12-20T10:17:02;100033.41;;;7.81;100.00
63607;BME280;71992;52.478;-1.918;2023-12-20T10:19:37;100030.63;;;7.84;100.00
63607;BME280;71992;52.478;-1.918;2023-12-20T10:22:08;100036.56;;;7.89;100.00
63607;BME280;71992;52.478;-1.918;2023-12-20T10:24:39;100039.38;;;7.86;100.00
63607;BME280;71992;52.478;-1.918;2023-12-20T10:27:18;100040.53;;;7.80;100.00
63607;BME280;71992;52.478;-1.918;2023-12-20T10:29:49;100036.81;;;7.84;100.00
63607;BME280;71992;52.478;-1.918;2023-12-20T10:32:22;100036.88;;;7.83;100.00
63607;BME280;71992;52.478;-1.918;2023-12-20T10:34:56;100040.09;;;7.89;100.00
63607;BME280;71992;52.478;-1.918;2023-12-20T10:37:27;100057.38;;;7.98;100.00
63607;BME280;71992;52.478;-1.918;2023-12-20T10:39:59;100057.44;;;7.97;100.00
63607;BME280;71992;52.478;-1.918;2023-12-20T10:42:35;100059.19;;;7.98;100.00
63607;BME280;71992;52.478;-1.918;2023-12-20T10:45:08;100041.81;;;8.08;100.00
63607;BME280;71992;52.478;-1.918;2023-12-20T10:47:37;100040.25;;;8.21;100.00
63607;BME280;71992;52.478;-1.918;2023-12-20T10:50:09;100032.88;;;8.26;100.00
63607;BME280;71992;52.478;-1.918;2023-12-20T10:52:41;100024.22;;;8.23;100.00
63607;BME280;71992;52.478;-1.918;2023-12-20T10:55:13;100020.78;;;8.21;100.00
63607;BME280;71992;52.478;-1.918;2023-12-20T10:57:45;100002.16;;;8.21;100.00
63607;BME280;71992;52.478;-1.918;2023-12-20T11:00:21;100000.09;;;8.26;100.00
63607;BME280;71992;52.478;-1.918;2023-12-20T11:02:53;99989.47;;;8.26;100.00
63607;BME280;71992;52.478;-1.918;2023-12-20T11:05:32;99989.41;;;8.27;100.00
63607;BME280;71992;52.478;-1.918;2023-12-20T11:08:10;99984.94;;;8.28;100.00
63607;BME280;71992;52.478;-1.918;2023-12-20T11:10:48;99964.50;;;8.28;100.00
63607;BME280;71992;52.478;-1.918;2023-12-20T11:13:28;99964.50;;;8.28;100.00
63607;BME280;71992;52.478;-1.918;2023-12-20T11:16:01;99960.97;;;8.28;100.00
63607;BME280;71992;52.478;-1.918;2023-12-20T11:18:33;99942.28;;;8.29;100.00
63607;BME280;71992;52.478;-1.918;2023-12-20T11:21:05;99935.94;;;8.32;100.00
63607;BME280;71992;52.478;-1.918;2023-12-20T11:23:37;99932.44;;;8.31;100.00
63607;BME280;71992;52.478;-1.918;2023-12-20T11:26:07;99940.06;;;8.37;100.00
63607;BME280;71992;52.478;-1.918;2023-12-20T11:28:41;99947.97;;;8.39;100.00
63607;BME280;71992;52.478;-1.918;2023-12-20T11:31:14;99943.47;;;8.41;100.00
63607;BME280;71992;52.478;-1.918;2023-12-20T11:33:48;99945.16;;;8.42;100.00
63607;BME280;71992;52.478;-1.918;2023-12-20T11:36:19;99938.75;;;8.46;100.00
63607;BME280;71992;52.478;-1.918;2023-12-20T11:38:56;99927.06;;;8.49;100.00
63607;BME280;71992;52.478;-1.918;2023-12-20T11:41:26;99902.34;;;8.47;100.00
63607;BME280;71992;52.478;-1.918;2023-12-20T11:44:00;99903.81;;;8.52;100.00
63607;BME280;71992;52.478;-1.918;2023-12-20T11:46:31;99896.50;;;8.56;100.00
63607;BME280;71992;52.478;-1.918;2023-12-20T11:49:00;99883.13;;;8.57;100.00
63607;BME280;71992;52.478;-1.918;2023-12-20T11:51:29;99882.28;;;8.57;100.00
63607;BME280;71992;52.478;-1.918;2023-12-20T11:54:00;99871.19;;;8.65;100.00
63607;BME280;71992;52.478;-1.918;2023-12-20T11:56:31;99868.38;;;8.68;100.00
63607;BME280;71992;52.478;-1.918;2023-12-20T11:59:03;99867.22;;;8.72;100.00
63607;BME280;71992;52.478;-1.918;2023-12-20T12:01:35;99862.59;;;8.75;100.00
63607;BME280;71992;52.478;-1.918;2023-12-20T12:04:07;99869.41;;;8.81;100.00
63607;BME280;71992;52.478;-1.918;2023-12-20T12:06:38;99860.28;;;8.85;100.00
63607;BME280;71992;52.478;-1.918;2023-12-20T12:09:10;99854.94;;;8.85;100.00
63607;BME280;71992;52.478;-1.918;2023-12-20T12:11:42;99858.13;;;8.92;100.00
63607;BME280;71992;52.478;-1.918;2023-12-20T12:14:15;99854.53;;;8.93;100.00
63607;BME280;71992;52.478;-1.918;2023-12-20T12:16:50;99844.53;;;8.96;100.00
63607;BME280;71992;52.478;-1.918;2023-12-20T12:19:25;99837.91;;;9.04;100.00
63607;BME280;71992;52.478;-1.918;2023-12-20T12:22:06;99831.47;;;9.08;100.00
63607;BME280;71992;52.478;-1.918;2023-12-20T12:24:42;99829.75;;;9.07;100.00
63607;BME280;71992;52.478;-1.918;2023-12-20T12:27:13;99819.19;;;9.05;100.00
63607;BME280;71992;52.478;-1.918;2023-12-20T12:30:07;99822.81;;;9.04;100.00
63607;BME280;71992;52.478;-1.918;2023-12-20T12:32:38;99813.84;;;9.05;100.00
63607;BME280;71992;52.478;-1.918;2023-12-20T12:35:12;99816.53;;;9.05;100.00
63607;BME280;71992;52.478;-1.918;2023-12-20T12:37:44;99811.13;;;9.07;100.00
63607;BME280;71992;52.478;-1.918;2023-12-20T12:40:16;99796.84;;;9.08;100.00
63607;BME280;71992;52.478;-1.918;2023-12-20T12:42:56;99794.66;;;9.14;100.00
63607;BME280;71992;52.478;-1.918;2023-12-20T12:45:30;99783.94;;;9.16;100.00
63607;BME280;71992;52.478;-1.918;2023-12-20T12:48:01;99780.41;;;9.15;100.00
63607;BME280;71992;52.478;-1.918;2023-12-20T12:50:34;99782.03;;;9.18;100.00
63607;BME280;71992;52.478;-1.918;2023-12-20T12:53:06;99781.25;;;9.16;100.00
63607;BME280;71992;52.478;-1.918;2023-12-20T12:55:37;99782.13;;;9.16;100.00
63607;BME280;71992;52.478;-1.918;2023-12-20T12:58:21;99776.03;;;9.14;100.00
63607;BME280;71992;52.478;-1.918;2023-12-20T13:01:15;99775.75;;;9.19;100.00
63607;BME280;71992;52.478;-1.918;2023-12-20T13:04:02;99753.59;;;9.18;100.00
63607;BME280;71992;52.478;-1.918;2023-12-20T13:06:38;99748.06;;;9.22;100.00